Flight Track Log - Related Links

Times and Time Zones

All times are in EDT time to prevent confusion due to time zone crossing. See the AMX3 flight status page for this flight to view local times or setup timezone preferences in your user account.

Time Position Orientation Groundspeed Altitude Reporting Facility
EDT Latitude Longitude Course Direction KTS MPH feet Rate Location/Type
Wed 12:52:00 AM 23.2007 -95.5606 40° Northeast  Level Estimated
Wed 12:53:00 AM 23.3065 -95.4582 42° Northeast  Level Estimated
Wed 12:54:00 AM 23.4122 -95.3557 42° Northeast  Level Estimated
Wed 12:55:00 AM 23.5178 -95.2529 42° Northeast  Level Estimated
Wed 12:56:00 AM 23.6233 -95.1500 42° Northeast  Level Estimated
Wed 12:57:00 AM 23.7288 -95.0469 42° Northeast  Level Estimated
Wed 12:58:00 AM 23.8342 -94.9437 42° Northeast  Level Estimated
Wed 12:59:00 AM 23.9395 -94.8403 42° Northeast  Level Estimated
Wed 01:00:00 AM 24.0448 -94.7367 42° Northeast  Level Estimated
Wed 01:01:00 AM 24.1500 -94.6330 42° Northeast  Level Estimated
Wed 01:02:00 AM 24.2551 -94.5291 42° Northeast  Level Estimated
Wed 01:03:00 AM 24.3602 -94.4250 42° Northeast  Level Estimated
Wed 01:04:00 AM 24.4652 -94.3207 42° Northeast  Level Estimated
Wed 01:05:00 AM 24.5701 -94.2163 42° Northeast  Level Estimated
Wed 01:06:00 AM 24.6749 -94.1117 42° Northeast  Level Estimated
Wed 01:07:00 AM 24.7797 -94.0069 42° Northeast  Level Estimated
Wed 01:07:15 AM 25.0747 -95.9153 42° Northeast 506 582 33,000  Level Houston Center
Wed 01:08:00 AM 24.8844 -93.9020 42° Northeast  Level Estimated
Wed 01:08:16 AM 25.1928 -95.8306 33° Northeast 507 583 33,000  Level Houston Center
Wed 01:09:00 AM 24.9890 -93.7968 42° Northeast  Level Estimated
Wed 01:09:16 AM 25.2875 -95.7633 33° Northeast 507 583 33,000  Level Houston Center
Wed 01:10:00 AM 25.0936 -93.6915 42° Northeast  Level Estimated
Wed 01:10:16 AM 25.4308 -95.6594 33° Northeast 508 585 32,900  Level Houston Center
Wed 01:11:00 AM 25.1980 -93.5860 42° Northeast  Level Estimated
Wed 01:11:16 AM 25.5497 -95.5728 33° Northeast 509 586 33,000  Level Houston Center
Wed 01:12:00 AM 25.3024 -93.4803 42° Northeast  Level Estimated
Wed 01:12:17 AM 25.6625 -95.4783 37° Northeast 512 589 33,000  Level Houston Center
Wed 01:13:17 AM 25.7664 -95.3667 44° Northeast 518 596 33,000  Level Houston Center
Wed 01:14:17 AM 25.8661 -95.2556 45° Northeast 515 593 33,000  Level Houston Center
Wed 01:15:17 AM 25.9575 -95.1536 45° Northeast 514 592 33,000  Level Houston Center
Wed 01:16:18 AM 26.0606 -95.0394 45° Northeast 519 597 33,000  Level Houston Center
Wed 01:17:18 AM 26.1619 -94.9278 45° Northeast 517 595 33,000 -50 Level Houston Center
Wed 01:18:18 AM 26.2636 -94.8119 46° Northeast 520 598 32,900 -50 Descending Houston Center
Wed 01:19:18 AM 26.3644 -94.6992 45° Northeast 517 595 32,900 50 Level Houston Center
Wed 01:20:18 AM 26.4683 -94.5847 45° Northeast 512 589 33,000 50 Climbing Houston Center
Wed 01:21:19 AM 26.5706 -94.4675 46° Northeast 519 597 33,000  Level Houston Center
Wed 01:22:19 AM 26.6722 -94.3536 45° Northeast 520 598 33,000  Level Houston Center
Wed 01:23:19 AM 26.7733 -94.2375 46° Northeast 520 598 33,000  Level Houston Center
Wed 01:24:19 AM 26.8750 -94.1239 45° Northeast 520 598 33,000  Level Houston Center
Wed 01:25:20 AM 26.9750 -94.0075 46° Northeast 520 598 33,000 347 Level Houston Center
Wed 01:26:20 AM 27.0706 -93.8917 47° Northeast 513 590 33,700 1,000 Climbing Houston Center
Wed 01:27:20 AM 27.1600 -93.7642 52° Northeast 514 592 35,000 650 Climbing Houston Center
Wed 01:28:20 AM 27.2489 -93.6356 52° Northeast 518 596 35,000  Level Houston Center
Wed 01:29:20 AM 27.3403 -93.5042 52° Northeast 526 605 35,000  Level Houston Center
Wed 01:30:21 AM 27.4311 -93.3725 52° Northeast 533 613 35,000  Level Houston Center
Wed 01:31:21 AM 27.5208 -93.2453 51° Northeast 524 603 35,000 -50 Level Houston Center
Wed 01:32:21 AM 27.6250 -93.0944 52° Northeast 523 602 34,900  Descending Houston Center
Wed 01:33:21 AM 27.7131 -92.9675 52° Northeast 520 598 35,000 50 Climbing Houston Center
Wed 01:34:21 AM 27.8017 -92.8400 52° Northeast 517 595 35,000  Level Houston Center
Wed 01:35:21 AM 27.8914 -92.7108 52° Northeast 520 598 35,000  Level Houston Center
Wed 01:36:22 AM 27.9800 -92.5806 52° Northeast 523 602 35,000  Level Houston Center
Wed 01:37:22 AM 28.0675 -92.4517 52° Northeast 521 600 35,000  Level Houston Center
Wed 01:38:22 AM 28.1575 -92.3194 52° Northeast 529 609 35,000  Level Houston Center
Wed 01:39:22 AM 28.2467 -92.1883 52° Northeast 529 609 35,000  Level Houston Center
Wed 01:40:22 AM 28.3367 -92.0561 52° Northeast 530 610 35,000 -50 Level Houston Center
Wed 01:41:22 AM 28.4267 -91.9239 52° Northeast 531 611 34,900  Descending Houston Center
Wed 01:42:23 AM 28.5142 -91.7922 53° Northeast 525 604 35,000 50 Climbing Houston Center
Wed 01:43:23 AM 28.5989 -91.6656 53° Northeast 529 609 35,000  Level Houston Center
Wed 01:44:23 AM 28.6881 -91.5322 53° Northeast 531 611 35,000  Level Houston Center
Wed 01:45:23 AM 28.7761 -91.3969 53° Northeast 531 611 35,000 -50 Level Houston Center
Wed 01:46:23 AM 28.8653 -91.2642 52° Northeast 530 610 34,900  Descending Houston Center
Wed 01:47:23 AM 28.9547 -91.1306 53° Northeast 530 610 35,000 50 Climbing Houston Center
Wed 01:48:23 AM 29.0422 -90.9956 53° Northeast 532 612 35,000 -50 Level Houston Center
Wed 01:49:23 AM 29.1308 -90.8622 53° Northeast 530 610 34,900  Descending Houston Center
Wed 01:50:24 AM 29.2192 -90.7269 53° Northeast 530 610 35,000 50 Climbing Houston Center
Wed 01:51:24 AM 29.3072 -90.5903 54° Northeast 533 613 35,000  Level Houston Center
Wed 01:52:24 AM 29.3953 -90.4550 53° Northeast 532 612 35,000  Level Houston Center
Wed 01:53:24 AM 29.4836 -90.3194 53° Northeast 532 612 35,000  Level Houston Center
Wed 01:54:24 AM 29.5722 -90.1833 53° Northeast 534 615 35,000 -50 Level Houston Center
Wed 01:55:24 AM 29.6597 -90.0467 54° Northeast 533 613 34,900  Descending Houston Center
Wed 01:56:24 AM 29.7483 -89.9106 53° Northeast 534 615 35,000 50 Climbing Houston Center
Wed 01:57:25 AM 29.8358 -89.7739 54° Northeast 534 615 35,000  Level Houston Center
Wed 01:58:25 AM 29.9389 -89.6108 54° Northeast 529 609 35,000 -50 Level Houston Center
Wed 01:59:25 AM 30.0261 -89.4750 53° Northeast 533 613 34,900  Descending Houston Center
Wed 02:00:25 AM 30.1122 -89.3381 54° Northeast 533 613 35,000 50 Climbing Houston Center
Wed 02:01:25 AM 30.1981 -89.2011 54° Northeast 532 612 35,000 -50 Level Houston Center
Wed 02:02:25 AM 30.2844 -89.0642 54° Northeast 532 612 34,900  Descending Houston Center
Wed 02:03:26 AM 30.3725 -88.9228 54° Northeast 533 613 35,000 50 Climbing Houston Center
Wed 02:04:26 AM 30.4578 -88.7842 54° Northeast 532 612 35,000  Level Houston Center
Wed 02:05:26 AM 30.5450 -88.6461 54° Northeast 532 612 35,000  Level Houston Center
Wed 02:06:26 AM 30.6308 -88.5078 54° Northeast 531 611 35,000  Level Houston Center
Wed 02:07:26 AM 30.7147 -88.3728 54° Northeast 530 610 35,000  Level Houston Center
Wed 02:08:26 AM 30.8089 -88.2422 50° Northeast 528 608 35,000  Level Houston Center
Wed 02:09:26 AM 30.9053 -88.1153 48° Northeast 526 605 35,000  Level Houston Center
Wed 02:10:26 AM 31.0011 -87.9886 49° Northeast 523 602 35,000 -50 Level Houston Center
Wed 02:11:27 AM 31.0958 -87.8617 49° Northeast 521 600 34,900  Descending Houston Center
Wed 02:12:27 AM 31.1897 -87.7353 49° Northeast 518 596 35,000 50 Climbing Houston Center
Wed 02:13:27 AM 31.2789 -87.6147 49° Northeast 516 594 35,000  Level Houston Center
Wed 02:14:27 AM 31.3711 -87.4889 49° Northeast 513 590 35,000  Level Houston Center
Wed 02:14:53 AM 31.4161 -87.4331 47° Northeast 521 600 35,000  Level Atlanta Center
Wed 02:15:53 AM 31.5094 -87.3050 49° Northeast 521 600 35,000  Level Atlanta Center
Wed 02:16:53 AM 31.6025 -87.1792 49° Northeast 521 600 35,000  Level Atlanta Center
Wed 02:17:53 AM 31.6997 -87.0436 50° Northeast 515 593 35,000  Level Atlanta Center
Wed 02:18:53 AM 31.7903 -86.9169 50° Northeast 504 580 35,000  Level Atlanta Center
Wed 02:19:53 AM 31.8831 -86.7903 49° Northeast 504 580 35,000  Level Atlanta Center
Wed 02:20:53 AM 31.9539 -86.6922 50° Northeast 499 574 35,000  Level Atlanta Center
Wed 02:21:53 AM 32.0569 -86.5531 49° Northeast 499 574 35,000  Level Atlanta Center
Wed 02:22:53 AM 32.1492 -86.4281 49° Northeast 499 574 35,000  Level Atlanta Center
Wed 02:23:53 AM 32.2397 -86.2881 53° Northeast 492 566 35,000  Level Atlanta Center
Wed 02:24:53 AM 32.3275 -86.1600 51° Northeast 498 573 35,000  Level Atlanta Center
Wed 02:25:53 AM 32.4153 -86.0319 51° Northeast 498 573 35,000  Level Atlanta Center
Wed 02:26:53 AM 32.5006 -85.9008 52° Northeast 503 579 35,000  Level Atlanta Center
Wed 02:27:53 AM 32.5817 -85.7842 50° Northeast 503 579 35,000  Level Atlanta Center
Wed 02:28:53 AM 32.6650 -85.6550 53° Northeast 503 579 35,000  Level Atlanta Center
Wed 02:29:53 AM 32.7519 -85.5281 51° Northeast 503 579 35,000  Level Atlanta Center
Wed 02:30:53 AM 32.8350 -85.3986 53° Northeast 503 579 35,000  Level Atlanta Center
Wed 02:31:53 AM 32.9239 -85.2736 50° Northeast 498 573 35,000  Level Atlanta Center
Wed 02:32:53 AM 33.0044 -85.1461 53° Northeast 489 563 35,000  Level Atlanta Center
Wed 02:33:53 AM 33.0911 -85.0158 52° Northeast 484 557 35,000  Level Atlanta Center
Wed 02:34:53 AM 33.1756 -84.8853 52° Northeast 484 557 35,000  Level Atlanta Center
Wed 02:35:53 AM 33.2600 -84.7567 52° Northeast 484 557 35,000  Level Atlanta Center
Wed 02:36:53 AM 33.3442 -84.6256 52° Northeast 484 557 35,000  Level Atlanta Center
Wed 02:37:53 AM 33.4303 -84.4944 52° Northeast 484 557 35,000  Level Atlanta Center
Wed 02:38:53 AM 33.5119 -84.3628 53° Northeast 489 563 35,000  Level Atlanta Center
Wed 02:39:53 AM 33.6042 -84.2233 52° Northeast 484 557 35,000  Level Atlanta Center
Wed 02:40:53 AM 33.6794 -84.1011 53° Northeast 489 563 35,000  Level Atlanta Center
Wed 02:41:53 AM 33.7650 -83.9689 52° Northeast 494 568 35,000  Level Atlanta Center
Wed 02:42:53 AM 33.8506 -83.8386 52° Northeast 494 568 35,000  Level Atlanta Center
Wed 02:43:53 AM 33.9336 -83.7083 52° Northeast 494 568 35,000  Level Atlanta Center
Wed 02:44:53 AM 34.0250 -83.5625 53° Northeast 494 568 35,000  Level Atlanta Center
Wed 02:45:53 AM 34.1078 -83.4317 53° Northeast 489 563 35,000  Level Atlanta Center
Wed 02:46:53 AM 34.1906 -83.3006 53° Northeast 484 557 35,000  Level Atlanta Center
Wed 02:47:53 AM 34.2733 -83.1692 53° Northeast 489 563 35,000  Level Atlanta Center
Wed 02:48:53 AM 34.3536 -83.0397 53° Northeast 484 557 35,000  Level Atlanta Center
Wed 02:49:53 AM 34.4339 -82.9081 54° Northeast 484 557 35,000  Level Atlanta Center
Wed 02:50:53 AM 34.5161 -82.7758 53° Northeast 484 557 35,000  Level Atlanta Center
Wed 02:51:53 AM 34.5983 -82.6458 52° Northeast 484 557 35,000  Level Atlanta Center
Wed 02:52:53 AM 34.6781 -82.5183 53° Northeast 484 557 35,000  Level Atlanta Center
Wed 02:53:53 AM 34.7578 -82.3853 54° Northeast 479 551 35,000  Level Atlanta Center
Wed 02:54:53 AM 34.8372 -82.2494 55° Northeast 485 558 35,000  Level Atlanta Center
Wed 02:55:53 AM 34.9189 -82.1236 52° Northeast 485 558 35,000  Level Atlanta Center
Wed 02:56:53 AM 34.9919 -82.0028 54° Northeast 483 556 35,000  Level Atlanta Center
Wed 02:57:53 AM 35.0669 -81.8692 56° Northeast 483 556 35,000  Level Atlanta Center
Wed 02:58:53 AM 35.1414 -81.7275 57° Northeast 488 562 35,000  Level Atlanta Center
Wed 02:59:53 AM 35.2161 -81.5881 57° Northeast 488 562 35,000  Level Atlanta Center
Wed 03:00:53 AM 35.2883 -81.4486 58° Northeast 488 562 35,000  Level Atlanta Center
Wed 03:01:53 AM 35.3603 -81.3114 57° Northeast 481 554 35,000  Level Atlanta Center
Wed 03:02:53 AM 35.4303 -81.1689 59° Northeast 486 559 35,000  Level Atlanta Center
Wed 03:03:53 AM 35.5061 -81.0283 56° Northeast 491 565 35,000  Level Atlanta Center
Wed 03:04:53 AM 35.5778 -80.8906 57° Northeast 484 557 35,000  Level Atlanta Center
Wed 03:05:53 AM 35.6514 -80.7522 57° Northeast 484 557 35,000  Level Atlanta Center
Wed 03:06:53 AM 35.7225 -80.6136 58° Northeast 484 557 35,000  Level Atlanta Center
Wed 03:07:53 AM 35.7936 -80.4725 58° Northeast 484 557 35,000  Level Atlanta Center
Wed 03:08:53 AM 35.8725 -80.3203 57° Northeast 484 557 35,000  Level Atlanta Center
Wed 03:10:43 AM 36.0036 -80.0672 57° Northeast 500 575 35,000  Level Washington Center
Wed 03:11:43 AM 36.0753 -79.9300 57° Northeast 483 556 35,000  Level Washington Center
Wed 03:12:43 AM 36.1533 -79.7928 55° Northeast 478 550 35,000  Level Washington Center
Wed 03:13:43 AM 36.2222 -79.6678 56° Northeast 484 557 35,000  Level Washington Center
Wed 03:14:43 AM 36.3067 -79.5175 55° Northeast 478 550 35,000  Level Washington Center
Wed 03:15:43 AM 36.3839 -79.3872 54° Northeast 471 542 35,000  Level Washington Center
Wed 03:16:43 AM 36.4464 -79.2586 59° Northeast 471 542 35,000  Level Washington Center
Wed 03:17:43 AM 36.5342 -79.1128 53° Northeast 476 548 35,000  Level Washington Center
Wed 03:18:43 AM 36.6089 -78.9764 56° Northeast 476 548 35,000  Level Washington Center
Wed 03:19:43 AM 36.6817 -78.8372 57° Northeast 482 555 35,000  Level Washington Center
Wed 03:20:43 AM 36.7564 -78.6978 56° Northeast 482 555 35,000  Level Washington Center
Wed 03:21:43 AM 36.8264 -78.5733 55° Northeast 477 549 35,000  Level Washington Center
Wed 03:22:43 AM 36.9006 -78.4411 55° Northeast 477 549 35,000  Level Washington Center
Wed 03:23:43 AM 36.9767 -78.3008 56° Northeast 477 549 35,000  Level Washington Center
Wed 03:24:43 AM 37.0650 -78.1792 48° Northeast 477 549 35,000  Level Washington Center
Wed 03:25:43 AM 37.1728 -78.1044 29° Northeast 445 512 35,000  Level Washington Center
Wed 03:26:43 AM 37.2831 -78.0194 32° Northeast 450 518 35,000  Level Washington Center
Wed 03:27:43 AM 37.3892 -77.9364 32° Northeast 450 518 35,000  Level Washington Center
Wed 03:28:43 AM 37.4992 -77.8536 31° Northeast 455 524 35,000  Level Washington Center
Wed 03:29:43 AM 37.6050 -77.7622 34° Northeast 460 529 35,000  Level Washington Center
Wed 03:30:43 AM 37.7092 -77.6656 36° Northeast 460 529 35,000  Level Washington Center
Wed 03:31:43 AM 37.8089 -77.5631 39° Northeast 460 529 35,000  Level Washington Center
Wed 03:32:43 AM 37.9044 -77.4472 44° Northeast 460 529 35,000  Level Washington Center
Wed 03:33:43 AM 37.9981 -77.3308 44° Northeast 460 529 35,000  Level Washington Center
Wed 03:34:43 AM 38.0872 -77.2194 44° Northeast 460 529 35,000  Level Washington Center
Wed 03:35:43 AM 38.1825 -77.1000 45° Northeast 460 529 35,000  Level Washington Center
Wed 03:36:43 AM 38.2778 -76.9831 44° Northeast 465 535 35,000  Level Washington Center
Wed 03:37:43 AM 38.3667 -76.8708 45° Northeast 454 522 35,000  Level Washington Center
Wed 03:38:43 AM 38.4594 -76.7556 44° Northeast 454 522 35,000  Level Washington Center
Wed 03:39:43 AM 38.5522 -76.6403 44° Northeast 460 529 35,000  Level Washington Center
Wed 03:40:43 AM 38.6556 -76.5089 45° Northeast 466 536 35,000  Level Washington Center
Wed 03:41:43 AM 38.7481 -76.3903 45° Northeast 461 531 35,000  Level Washington Center
Wed 03:42:43 AM 38.8406 -76.2739 44° Northeast 461 531 35,000  Level Washington Center
Wed 03:43:43 AM 38.9161 -76.1786 44° Northeast 461 531 35,000  Level Washington Center
Wed 03:44:43 AM 39.0231 -76.0486 43° Northeast 461 531 35,000  Level Washington Center
Wed 03:45:43 AM 39.1150 -75.9314 45° Northeast 461 531 35,000  Level Washington Center
Wed 03:46:43 AM 39.2050 -75.8111 46° Northeast 461 531 35,000  Level Washington Center
Wed 03:48:26 AM 39.3706 -75.5969 45° Northeast 448 516 35,000  Level New York Center
Wed 03:49:26 AM 39.4608 -75.4794 45° Northeast 448 516 35,000 -50 Level New York Center
Wed 03:50:27 AM 39.5511 -75.3589 46° Northeast 454 522 34,900  Descending New York Center
Wed 03:51:26 AM 39.6411 -75.2406 45° Northeast 459 528 35,000 50 Climbing New York Center
Wed 03:52:27 AM 39.7269 -75.1167 48° Northeast 459 528 35,000  Level New York Center
Wed 03:53:28 AM 39.8150 -74.9894 48° Northeast 459 528 35,000  Level New York Center
Wed 03:54:28 AM 39.9006 -74.8731 46° Northeast 453 521 35,000  Level New York Center
Wed 03:56:39 AM 40.0850 -74.6097 47° Northeast 466 536 35,000  Level Boston Center
Wed 03:57:40 AM 40.1706 -74.4875 47° Northeast 453 521 35,000  Level Boston Center
Wed 03:58:40 AM 40.2522 -74.3597 50° Northeast 453 521 35,000  Level Boston Center
Wed 03:59:39 AM 40.3314 -74.2258 52° Northeast 458 527 35,000  Level Boston Center
Wed 04:00:39 AM 40.4083 -74.0944 52° Northeast 458 527 35,000  Level Boston Center
Wed 04:01:39 AM 40.4808 -73.9817 50° Northeast 458 527 35,000 -50 Level Boston Center
Wed 04:02:39 AM 40.5661 -73.8389 52° Northeast 453 521 34,900  Descending Boston Center
Wed 04:03:39 AM 40.6428 -73.7092 52° Northeast 453 521 35,000 50 Climbing Boston Center
Wed 04:04:39 AM 40.7172 -73.5711 55° Northeast 459 528 35,000 -50 Level Boston Center
Wed 04:05:39 AM 40.7933 -73.4408 52° Northeast 454 522 34,900  Descending Boston Center
Wed 04:06:39 AM 40.8778 -73.3047 51° Northeast 447 514 35,000 50 Climbing Boston Center
Wed 04:07:39 AM 40.9517 -73.1739 53° Northeast 441 507 35,000  Level Boston Center
Wed 04:08:39 AM 41.0275 -73.0481 51° Northeast 441 507 35,000  Level Boston Center
Wed 04:09:40 AM 41.0947 -72.9275 53° Northeast 441 507 35,000  Level Boston Center
Wed 04:10:40 AM 41.1703 -72.7958 53° Northeast 446 513 35,000  Level Boston Center
Wed 04:11:40 AM 41.2456 -72.6636 53° Northeast 446 513 35,000  Level Boston Center
Wed 04:12:40 AM 41.3228 -72.5258 53° Northeast 454 522 35,000 -50 Level Boston Center
Wed 04:13:40 AM 41.3981 -72.3931 53° Northeast 454 522 34,900  Descending Boston Center
Wed 04:14:40 AM 41.4708 -72.2656 53° Northeast 454 522 35,000 555 Climbing Boston Center
Wed 04:15:39 AM 41.5475 -72.1267 54° Northeast 449 517 36,000 1,000 Climbing Boston Center
Wed 04:16:40 AM 41.6222 -71.9903 54° Northeast 449 517 37,000 496 Climbing Boston Center
Wed 04:17:40 AM 41.6986 -71.8533 53° Northeast 454 522 37,000  Level Boston Center
Wed 04:18:40 AM 41.7606 -71.7417 53° Northeast 459 528 37,000  Level Boston Center
Wed 04:19:40 AM 41.8531 -71.5761 53° Northeast 459 528 37,000  Level Boston Center
Wed 04:20:40 AM 41.9333 -71.4411 51° Northeast 459 528 37,000  Level Boston Center
Wed 04:21:40 AM 42.0092 -71.3028 54° Northeast 459 528 37,000  Level Boston Center
Wed 04:22:40 AM 42.0847 -71.1617 54° Northeast 459 528 37,000 -50 Level Boston Center
Wed 04:23:40 AM 42.1622 -71.0200 54° Northeast 459 528 36,900 -50 Descending Boston Center
Wed 04:24:39 AM 42.2397 -70.8781 54° Northeast 459 528 36,900 50 Level Boston Center
Wed 04:25:40 AM 42.3125 -70.7303 56° Northeast 459 528 37,000 50 Climbing Boston Center
Wed 04:26:40 AM 42.3894 -70.5875 54° Northeast 465 535 37,000  Level Boston Center
Wed 04:27:40 AM 42.4661 -70.4389 55° Northeast 465 535 37,000  Level Boston Center
Wed 04:28:40 AM 42.5469 -70.2925 53° Northeast 475 547 37,000  Level Boston Center
Wed 04:29:40 AM 42.6231 -70.1461 55° Northeast 480 552 37,000  Level Boston Center
Wed 04:30:40 AM 42.6994 -69.9992 55° Northeast 480 552 37,000  Level Boston Center
Wed 04:31:40 AM 42.7772 -69.8489 55° Northeast 480 552 37,000 -50 Level Boston Center
Wed 04:32:40 AM 42.8611 -69.6867 55° Northeast 480 552 36,900  Descending Boston Center
Wed 04:33:40 AM 42.9386 -69.5358 55° Northeast 485 558 37,000 50 Climbing Boston Center
Wed 04:34:40 AM 43.0139 -69.3844 56° Northeast 485 558 37,000  Level Boston Center
Wed 04:35:40 AM 43.0911 -69.2328 55° Northeast 485 558 37,000 -47 Level Boston Center
Wed 04:36:49 AM 43.1500 -69.0667 64° Northeast 480 552 36,900 -47 Descending Moncton Center
Wed 04:37:49 AM 43.2333 -68.9333 49° Northeast 480 552 36,900 54 Level Moncton Center
Wed 04:38:40 AM 43.3214 -68.7811 51° Northeast 485 558 37,000  Climbing Boston Center
Wed 04:39:49 AM 43.3833 -68.6333 60° Northeast 490 564 36,900 -47 Descending Moncton Center
Wed 04:40:49 AM 43.4667 -68.4667 55° Northeast 490 564 36,900 54 Level Moncton Center
Wed 04:41:40 AM 43.5517 -68.3200 51° Northeast 485 558 37,000 54 Climbing Boston Center
Wed 04:42:40 AM 43.6214 -68.1775 56° Northeast 485 558 37,000 -50 Level Boston Center
Wed 04:43:40 AM 43.6967 -68.0200 56° Northeast 485 558 36,900  Descending Boston Center
Wed 04:44:40 AM 43.7739 -67.8589 56° Northeast 485 558 37,000 50 Climbing Boston Center
Wed 04:45:40 AM 43.8528 -67.6972 56° Northeast 490 564 37,000  Level Boston Center
Wed 04:46:40 AM 43.9311 -67.5294 57° Northeast 500 575 37,000  Level Boston Center
Wed 04:47:49 AM 44.0167 -67.3333 59° Northeast 510 587 37,000  Level Moncton Center
Wed 04:48:49 AM 44.0833 -67.1667 61° Northeast 510 587 37,000  Level Moncton Center
Wed 04:49:49 AM 44.1667 -66.9833 58° Northeast 510 587 37,000  Level Moncton Center
Wed 04:50:49 AM 44.2500 -66.8167 55° Northeast 510 587 37,000  Level Moncton Center
Wed 04:51:49 AM 44.3333 -66.6333 58° Northeast 510 587 37,000  Level Moncton Center
Wed 04:52:49 AM 44.4000 -66.4833 58° Northeast 520 598 37,000  Level Moncton Center
Wed 04:53:49 AM 44.4833 -66.3167 55° Northeast 520 598 37,000  Level Moncton Center
Wed 04:54:49 AM 44.5500 -66.1500 61° Northeast 520 598 37,000  Level Moncton Center
Wed 04:55:49 AM 44.6500 -65.9667 52° Northeast 520 598 37,000  Level Moncton Center
Wed 04:56:49 AM 44.7167 -65.8167 58° Northeast 520 598 37,000  Level Moncton Center
Wed 04:57:49 AM 44.8000 -65.6500 55° Northeast 520 598 37,000  Level Moncton Center
Wed 04:58:49 AM 44.8667 -65.4667 63° Northeast 520 598 37,000  Level Moncton Center
Wed 04:59:49 AM 44.9500 -65.2667 59° Northeast 520 598 37,000  Level Moncton Center
Wed 05:00:49 AM 45.0167 -65.1000 60° Northeast 520 598 37,000  Level Moncton Center
Wed 05:01:49 AM 45.1000 -64.9500 52° Northeast 520 598 37,000  Level Moncton Center
Wed 05:02:49 AM 45.1667 -64.7500 65° Northeast 520 598 37,000  Level Moncton Center
Wed 05:03:49 AM 45.2500 -64.5833 55° Northeast 520 598 37,000  Level Moncton Center
Wed 05:04:49 AM 45.3167 -64.4000 63° Northeast 520 598 37,000  Level Moncton Center
Wed 05:05:49 AM 45.4000 -64.2333 55° Northeast 520 598 37,000  Level Moncton Center
Wed 05:06:49 AM 45.4667 -64.0333 65° Northeast 520 598 37,000  Level Moncton Center
Wed 05:07:49 AM 45.5500 -63.8667 54° Northeast 520 598 37,000  Level Moncton Center
Wed 05:08:49 AM 45.6167 -63.6833 62° Northeast 520 598 37,000  Level Moncton Center
Wed 05:09:49 AM 45.7000 -63.5167 54° Northeast 520 598 37,000  Level Moncton Center
Wed 05:10:49 AM 45.7667 -63.3167 64° Northeast 520 598 37,000  Level Moncton Center
Wed 05:11:49 AM 45.8500 -63.1500 54° Northeast 520 598 37,000  Level Moncton Center
Wed 05:12:49 AM 45.9333 -62.9833 54° Northeast 530 610 37,000  Level Moncton Center
Wed 05:13:49 AM 46.0000 -62.7833 64° Northeast 530 610 37,000  Level Moncton Center
Wed 05:14:49 AM 46.0833 -62.6167 54° Northeast 520 598 37,000  Level Moncton Center
Wed 05:15:49 AM 46.1500 -62.4333 62° Northeast 530 610 37,000  Level Moncton Center
Wed 05:16:49 AM 46.2167 -62.2500 62° Northeast 530 610 37,000  Level Moncton Center
Wed 05:17:49 AM 46.2833 -62.0667 62° Northeast 530 610 37,000  Level Moncton Center
Wed 05:18:49 AM 46.3667 -61.8667 59° Northeast 520 598 37,000  Level Moncton Center
Wed 05:19:49 AM 46.4500 -61.6833 57° Northeast 520 598 37,000  Level Moncton Center
Wed 05:20:49 AM 46.5000 -61.5000 68° East 520 598 37,000  Level Moncton Center
Wed 05:21:49 AM 46.5833 -61.3000 59° Northeast 530 610 37,000  Level Moncton Center
Wed 05:22:49 AM 46.6500 -61.1333 60° Northeast 530 610 37,000  Level Moncton Center
Wed 05:23:49 AM 46.7333 -60.9500 56° Northeast 530 610 37,000  Level Moncton Center
Wed 05:24:49 AM 46.7833 -60.7500 70° East 530 610 37,000  Level Moncton Center
Wed 05:25:49 AM 46.8667 -60.5833 54° Northeast 530 610 37,000  Level Moncton Center
Wed 05:26:49 AM 46.9500 -60.3833 59° Northeast 530 610 37,000  Level Moncton Center
Wed 05:27:49 AM 47.0000 -60.2000 68° East 530 610 37,000  Level Moncton Center
Wed 05:28:49 AM 47.0667 -60.0167 62° Northeast 530 610 37,000  Level Moncton Center
Wed 05:29:49 AM 47.1333 -59.8167 64° Northeast 520 598 37,000  Level Moncton Center
Wed 05:30:49 AM 47.2167 -59.6167 58° Northeast 530 610 37,000  Level Moncton Center
Wed 05:31:49 AM 47.2667 -59.4333 68° East 530 610 37,000  Level Moncton Center
Wed 05:32:49 AM 47.3500 -59.2333 58° Northeast 530 610 37,000  Level Moncton Center
Wed 05:33:49 AM 47.4167 -59.0500 62° Northeast 510 587 37,000  Level Moncton Center
Wed 05:34:49 AM 47.4833 -58.8500 64° Northeast 520 598 37,000  Level Moncton Center
Wed 05:35:49 AM 47.5333 -58.6667 68° East 520 598 37,000  Level Moncton Center
Wed 05:36:49 AM 47.6167 -58.4833 56° Northeast 520 598 37,000  Level Moncton Center
Wed 05:37:49 AM 47.6667 -58.3000 68° East 520 598 37,000  Level Moncton Center
Wed 05:38:49 AM 47.7500 -58.1000 58° Northeast 520 598 37,000  Level Moncton Center
Wed 05:39:49 AM 47.8167 -57.9167 62° Northeast 520 598 37,000  Level Moncton Center
Wed 05:40:49 AM 47.8667 -57.7000 71° East 520 598 37,000  Level Moncton Center
Wed 05:41:49 AM 47.9500 -57.5167 56° Northeast 520 598 37,000  Level Moncton Center
Wed 05:42:49 AM 48.0000 -57.3167 69° East 530 610 37,000  Level Moncton Center
Wed 05:43:49 AM 48.0667 -57.1167 63° Northeast 520 598 37,000  Level Moncton Center
Wed 05:44:49 AM 48.1333 -56.9167 63° Northeast 520 598 37,000  Level Moncton Center
Wed 05:45:49 AM 48.1833 -56.7000 71° East 520 598 37,000  Level Moncton Center
Wed 05:46:49 AM 48.2500 -56.5167 61° Northeast 520 598 37,000  Level Moncton Center
Wed 05:47:49 AM 48.3000 -56.3167 69° East 520 598 37,000  Level Moncton Center
Wed 05:48:49 AM 48.3500 -56.1167 69° East 520 598 37,000  Level Moncton Center
Wed 05:49:49 AM 48.4167 -55.9167 63° Northeast 520 598 37,000  Level Moncton Center
Wed 05:50:49 AM 48.4833 -55.7167 63° Northeast 520 598 37,000  Level Moncton Center
Wed 05:51:49 AM 48.5500 -55.5000 65° Northeast 520 598 37,000  Level Moncton Center
Wed 05:52:49 AM 48.6000 -55.3167 68° East 520 598 37,000  Level Moncton Center
Wed 05:53:49 AM 48.6667 -55.1000 65° Northeast 520 598 37,000  Level Moncton Center
Wed 05:54:49 AM 48.7167 -54.9167 67° East 520 598 37,000  Level Moncton Center
Wed 05:55:49 AM 48.7667 -54.7000 71° East 520 598 37,000  Level Moncton Center
Wed 05:56:49 AM 48.8333 -54.5167 61° Northeast 520 598 37,000  Level Moncton Center
Wed 05:57:49 AM 48.8833 -54.3000 71° East 520 598 37,000  Level Moncton Center
Wed 05:58:29 AM 48.9333 -54.1833 57° Northeast 530 610 37,000  Level Gander Center
Wed 05:58:49 AM 48.9500 -54.1000 73° East 520 598 37,000  Level Moncton Center
Wed 05:59:29 AM 48.9833 -53.9667 69° East 520 598 37,000  Level Gander Center
Wed 05:59:55 AM 49.0167 -53.8833 59° Northeast 520 598 37,000  Level Gander Center
Wed 06:00:55 AM 49.0667 -53.6667 71° East 520 598 37,000  Level Gander Center
Wed 06:01:55 AM 49.1167 -53.4667 69° East 520 598 37,000  Level Gander Center
Wed 06:02:29 AM 49.1333 -53.3500 78° East 520 598 37,000  Level Gander Center
Wed 06:03:29 AM 49.2167 -53.1333 59° Northeast 520 598 37,000  Level Gander Center
Wed 06:04:29 AM 49.2667 -52.9167 70° East 520 598 37,000  Level Gander Center
Wed 06:05:29 AM 49.3167 -52.7333 67° East 520 598 37,000  Level Gander Center
Wed 06:06:29 AM 49.3667 -52.5167 70° East 520 598 37,000  Level Gander Center
Wed 06:06:55 AM 49.4000 -52.4333 58° Northeast 520 598 37,000  Level Gander Center
Wed 06:07:29 AM 49.4167 -52.3333 76° East 520 598 37,000  Level Gander Center
Wed 06:07:55 AM 49.4500 -52.2167 66° East 520 598 37,000  Level Gander Center
Wed 06:08:29 AM 49.4667 -52.1167 76° East 520 598 37,000  Level Gander Center
Wed 06:09:29 AM 49.5167 -51.9000 70° East 520 598 37,000  Level Gander Center
Wed 06:09:55 AM 49.5500 -51.8167 58° Northeast 520 598 37,000  Level Gander Center
Wed 06:10:55 AM 49.6000 -51.6000 70° East 520 598 37,000  Level Gander Center
Wed 06:11:29 AM 49.6167 -51.4833 78° East 520 598 37,000  Level Gander Center
Wed 06:11:55 AM 49.6500 -51.4000 58° Northeast 520 598 37,000  Level Gander Center
Wed 06:12:55 AM 49.6833 -51.1833 77° East 510 587 37,000  Level Gander Center
Wed 06:13:55 AM 49.7333 -50.9833 69° East 510 587 37,000  Level Gander Center
Wed 06:14:49 AM 49.7833 -50.7833 69° East 510 587 37,000  Level Moncton Center
Wed 06:15:49 AM 49.8333 -50.6000 67° East 510 587 37,000  Level Moncton Center
Wed 06:16:49 AM 49.8667 -50.3667 77° East 500 575 37,000  Level Moncton Center
Wed 06:17:49 AM 49.9167 -50.2000 65° Northeast 500 575 37,000  Level Moncton Center
Wed 06:18:49 AM 49.9667 -50.0000 69° East 500 575 37,000  Level Moncton Center
Wed 06:19:29 AM 50.0000 -49.8333 73° East 500 575 37,000  Level Gander Center
Wed 06:19:55 AM 50.0167 -49.7500 73° East 500 575 37,000  Level Gander Center
Wed 06:20:55 AM 50.0000 -50.0000 77° East 503 579 37,000  Level ETMS Enhanced Traffic Management System
Wed 06:20:55 AM 50.0333 -49.5333 77° East 510 587 37,000  Level Gander Center
Wed 06:21:29 AM 50.0667 -49.4167 66° East 500 575 37,000  Level Gander Center
Wed 06:22:29 AM 50.0833 -49.2000 83° East 500 575 37,000  Level Gander Center
Wed 06:23:29 AM 50.1167 -48.9833 76° East 500 575 37,000  Level Gander Center
Wed 06:24:29 AM 50.1500 -48.7667 76° East 500 575 37,000  Level Gander Center
Wed 06:25:29 AM 50.1667 -48.5833 82° East 500 575 37,000  Level Gander Center
Wed 06:26:29 AM 50.2000 -48.3667 76° East 500 575 37,000  Level Gander Center
Wed 06:26:55 AM 50.2000 -48.2833 90° East 490 564 37,000  Level Gander Center
Wed 06:27:55 AM 50.2333 -48.0667 76° East 490 564 37,000  Level Gander Center
Wed 06:28:29 AM 50.2500 -47.9500 77° East 490 564 37,000  Level Gander Center
Wed 06:29:29 AM 50.3000 -47.7833 65° Northeast 490 564 37,000  Level Gander Center
Wed 06:31:00 AM 50.3387 -47.4626 79° East  Level FlightAware Approximate
Wed 06:38:00 AM 50.5059 -45.9759 79° East  Level FlightAware Approximate
Wed 06:39:00 AM 50.5282 -45.7627 81° East  Level FlightAware Approximate
Wed 06:40:00 AM 50.5501 -45.5492 81° East  Level FlightAware Approximate
Wed 06:41:00 AM 50.5717 -45.3356 81° East  Level FlightAware Approximate
Wed 06:42:00 AM 50.5928 -45.1218 81° East  Level FlightAware Approximate
Wed 06:43:00 AM 50.6136 -44.9078 81° East  Level FlightAware Approximate
Wed 06:44:00 AM 50.6340 -44.6936 81° East  Level FlightAware Approximate
Wed 06:45:00 AM 50.6540 -44.4792 82° East  Level FlightAware Approximate
Wed 06:46:00 AM 50.6736 -44.2646 82° East  Level FlightAware Approximate
Wed 06:47:00 AM 50.6927 -44.0499 82° East  Level FlightAware Approximate
Wed 06:48:00 AM 50.7116 -43.8350 82° East  Level FlightAware Approximate
Wed 06:49:00 AM 50.7299 -43.6199 82° East  Level FlightAware Approximate
Wed 06:50:00 AM 50.7480 -43.4047 82° East  Level FlightAware Approximate
Wed 06:51:00 AM 50.7656 -43.1892 83° East  Level FlightAware Approximate
Wed 06:52:00 AM 50.7828 -42.9737 83° East  Level FlightAware Approximate
Wed 06:53:00 AM 50.7996 -42.7579 83° East  Level FlightAware Approximate
Wed 06:54:00 AM 50.8160 -42.5420 83° East  Level FlightAware Approximate
Wed 06:55:00 AM 50.8338 -42.3256 82° East  Level FlightAware Approximate
Wed 06:56:00 AM 50.8512 -42.1097 83° East  Level FlightAware Approximate
Wed 06:57:00 AM 50.8683 -41.8937 83° East  Level FlightAware Approximate
Wed 06:58:00 AM 50.8849 -41.6775 83° East  Level FlightAware Approximate
Wed 06:59:00 AM 50.9011 -41.4612 83° East  Level FlightAware Approximate
Wed 07:00:00 AM 50.9170 -41.2448 83° East  Level FlightAware Approximate
Wed 07:01:00 AM 50.9324 -41.0281 83° East  Level FlightAware Approximate
Wed 07:02:00 AM 50.9474 -40.8114 84° East  Level FlightAware Approximate
Wed 07:03:00 AM 50.9620 -40.5945 84° East  Level FlightAware Approximate
Wed 07:04:00 AM 50.9762 -40.3775 84° East  Level FlightAware Approximate
Wed 07:05:00 AM 50.9901 -40.1603 84° East  Level FlightAware Approximate
Wed 07:06:00 AM 51.0081 -39.9442 77° East  Level FlightAware Approximate
Wed 07:07:00 AM 51.0388 -39.7313 77° East  Level FlightAware Approximate
Wed 07:08:00 AM 51.0690 -39.5181 77° East  Level FlightAware Approximate
Wed 07:09:00 AM 51.0989 -39.3046 77° East  Level FlightAware Approximate
Wed 07:09:00 AM 51.0000 -40.0000 77° East 493 567 37,000  Level ETMS Enhanced Traffic Management System
Wed 07:10:00 AM 51.1284 -39.0908 78° East  Level FlightAware Approximate
Wed 07:11:00 AM 51.1575 -38.8767 78° East  Level FlightAware Approximate
Wed 07:12:00 AM 51.1862 -38.6624 78° East  Level FlightAware Approximate
Wed 07:13:00 AM 51.2146 -38.4478 78° East  Level FlightAware Approximate
Wed 07:14:00 AM 51.2425 -38.2330 78° East  Level FlightAware Approximate
Wed 07:15:00 AM 51.2620 -38.0807 78° East 493 567 37,000  Level FlightAware Transoceanic
Wed 07:16:00 AM 51.2892 -37.8662 79° East 493 567 37,000  Level FlightAware Transoceanic
Wed 07:17:00 AM 51.3160 -37.6513 79° East 493 567 37,000  Level FlightAware Transoceanic
Wed 07:18:00 AM 51.3424 -37.4363 79° East 493 567 37,000  Level FlightAware Transoceanic
Wed 07:19:00 AM 51.3684 -37.2210 79° East 493 567 37,000  Level FlightAware Transoceanic
Wed 07:20:00 AM 51.3939 -37.0054 79° East 493 567 37,000  Level FlightAware Transoceanic
Wed 07:21:00 AM 51.4191 -36.7896 79° East 493 567 37,000  Level FlightAware Transoceanic
Wed 07:22:00 AM 51.4439 -36.5736 80° East 493 567 37,000  Level FlightAware Transoceanic
Wed 07:23:00 AM 51.4683 -36.3573 80° East 493 567 37,000  Level FlightAware Transoceanic
Wed 07:24:00 AM 51.4923 -36.1408 80° East 493 567 37,000  Level FlightAware Transoceanic
Wed 07:25:00 AM 51.5159 -35.9241 80° East 493 567 37,000  Level FlightAware Transoceanic
Wed 07:26:00 AM 51.5392 -35.7071 80° East 493 567 37,000  Level FlightAware Transoceanic
Wed 07:27:00 AM 51.5620 -35.4900 80° East 493 567 37,000  Level FlightAware Transoceanic
Wed 07:28:00 AM 51.5844 -35.2726 81° East 493 567 37,000  Level FlightAware Transoceanic
Wed 07:29:00 AM 51.6064 -35.0550 81° East 493 567 37,000  Level FlightAware Transoceanic
Wed 07:30:00 AM 51.6280 -34.8372 81° East 493 567 37,000  Level FlightAware Transoceanic
Wed 07:31:00 AM 51.6492 -34.6192 81° East 493 567 37,000  Level FlightAware Transoceanic
Wed 07:32:00 AM 51.6699 -34.4010 81° East 493 567 37,000  Level FlightAware Transoceanic
Wed 07:33:00 AM 51.6903 -34.1826 82° East 493 567 37,000  Level FlightAware Transoceanic
Wed 07:34:00 AM 51.7103 -33.9640 82° East 493 567 37,000  Level FlightAware Transoceanic
Wed 07:35:00 AM 51.7299 -33.7452 82° East 493 567 37,000  Level FlightAware Transoceanic
Wed 07:36:00 AM 51.7491 -33.5262 82° East 493 567 37,000  Level FlightAware Transoceanic
Wed 07:37:00 AM 51.7678 -33.3070 82° East 493 567 37,000  Level FlightAware Transoceanic
Wed 07:38:00 AM 51.7862 -33.0877 82° East 493 567 37,000  Level FlightAware Transoceanic
Wed 07:39:00 AM 51.8041 -32.8681 83° East 493 567 37,000  Level FlightAware Transoceanic
Wed 07:40:00 AM 51.8217 -32.6484 83° East 493 567 37,000  Level FlightAware Transoceanic
Wed 07:41:00 AM 51.8388 -32.4286 83° East 493 567 37,000  Level FlightAware Transoceanic
Wed 07:42:00 AM 51.8555 -32.2086 83° East 493 567 37,000  Level FlightAware Transoceanic
Wed 07:43:00 AM 51.8718 -31.9884 83° East 493 567 37,000  Level FlightAware Transoceanic
Wed 07:44:00 AM 51.8877 -31.7680 83° East 493 567 37,000  Level FlightAware Transoceanic
Wed 07:45:00 AM 51.9032 -31.5475 84° East 493 567 37,000  Level FlightAware Transoceanic
Wed 07:46:00 AM 51.9183 -31.3269 84° East 493 567 37,000  Level FlightAware Transoceanic
Wed 07:47:00 AM 51.9329 -31.1061 84° East 493 567 37,000  Level FlightAware Transoceanic
Wed 07:48:00 AM 51.9472 -30.8851 84° East 493 567 37,000  Level FlightAware Transoceanic
Wed 07:49:00 AM 51.9610 -30.6640 84° East 493 567 37,000  Level FlightAware Transoceanic
Wed 07:50:00 AM 51.9744 -30.4428 84° East 493 567 37,000  Level FlightAware Transoceanic
Wed 07:51:00 AM 51.9874 -30.2215 85° East 493 567 37,000  Level FlightAware Transoceanic
Wed 07:52:00 AM 52.0000 -29.9993 85° East  Level FlightAware Approximate
Wed 07:53:00 AM 52.0001 -29.9985 86° East  Level FlightAware Approximate
Wed 07:54:00 AM 52.0084 -29.7757 86° East  Level FlightAware Approximate
Wed 07:54:00 AM 52.0000 -30.0000 86° East 527 606 37,000  Level ETMS Enhanced Traffic Management System
Wed 07:55:00 AM 52.0162 -29.5528 87° East  Level FlightAware Approximate
Wed 07:56:00 AM 52.0237 -29.3299 87° East  Level FlightAware Approximate
Wed 07:57:00 AM 52.0307 -29.1068 87° East  Level FlightAware Approximate
Wed 07:58:00 AM 52.0373 -28.8838 87° East  Level FlightAware Approximate
Wed 07:59:00 AM 52.0435 -28.6606 87° East  Level FlightAware Approximate
Wed 08:00:00 AM 52.0713 -27.8602 88° East 527 606 37,000  Level FlightAware Transoceanic
Wed 08:01:00 AM 52.0768 -27.6220 88° East 527 606 37,000  Level FlightAware Transoceanic
Wed 08:02:00 AM 52.0819 -27.3839 88° East 527 606 37,000  Level FlightAware Transoceanic
Wed 08:03:00 AM 52.0864 -27.1456 88° East 527 606 37,000  Level FlightAware Transoceanic
Wed 08:04:00 AM 52.0905 -26.9073 88° East 527 606 37,000  Level FlightAware Transoceanic
Wed 08:05:00 AM 52.0941 -26.6690 89° East 527 606 37,000  Level FlightAware Transoceanic
Wed 08:06:00 AM 52.0973 -26.4307 89° East 527 606 37,000  Level FlightAware Transoceanic
Wed 08:07:00 AM 52.0999 -26.1922 89° East 527 606 37,000  Level FlightAware Transoceanic
Wed 08:08:00 AM 52.1021 -25.9538 89° East 527 606 37,000  Level FlightAware Transoceanic
Wed 08:09:00 AM 52.1038 -25.7154 89° East 527 606 37,000  Level FlightAware Transoceanic
Wed 08:10:00 AM 52.1050 -25.4769 90° East 527 606 37,000  Level FlightAware Transoceanic
Wed 08:11:00 AM 52.1057 -25.2385 90° East 527 606 37,000  Level FlightAware Transoceanic
Wed 08:12:00 AM 52.1059 -25.0000 90° East 527 606 37,000  Level FlightAware Transoceanic
Wed 08:13:00 AM 52.1057 -24.7615 90° East 527 606 37,000  Level FlightAware Transoceanic
Wed 08:14:00 AM 52.1050 -24.5231 90° East 527 606 37,000  Level FlightAware Transoceanic
Wed 08:15:00 AM 52.1038 -24.2846 91° East 527 606 37,000  Level FlightAware Transoceanic
Wed 08:16:00 AM 52.1021 -24.0462 91° East 527 606 37,000  Level FlightAware Transoceanic
Wed 08:17:00 AM 52.0999 -23.8078 91° East 527 606 37,000  Level FlightAware Transoceanic
Wed 08:18:00 AM 52.0973 -23.5693 91° East 527 606 37,000  Level FlightAware Transoceanic
Wed 08:19:00 AM 52.0941 -23.3310 91° East 527 606 37,000  Level FlightAware Transoceanic
Wed 08:20:00 AM 52.0905 -23.0927 92° East 527 606 37,000  Level FlightAware Transoceanic
Wed 08:21:00 AM 52.0864 -22.8544 92° East 527 606 37,000  Level FlightAware Transoceanic
Wed 08:22:00 AM 52.0819 -22.6161 92° East 527 606 37,000  Level FlightAware Transoceanic
Wed 08:23:00 AM 52.0768 -22.3780 92° East 527 606 37,000  Level FlightAware Transoceanic
Wed 08:24:00 AM 52.0713 -22.1398 92° East 527 606 37,000  Level FlightAware Transoceanic
Wed 08:25:00 AM 52.0653 -21.9017 92° East 527 606 37,000  Level FlightAware Transoceanic
Wed 08:26:00 AM 52.0588 -21.6637 93° East 527 606 37,000  Level FlightAware Transoceanic
Wed 08:27:00 AM 52.0518 -21.4258 93° East 527 606 37,000  Level FlightAware Transoceanic
Wed 08:28:00 AM 52.0444 -21.1880 93° East 527 606 37,000  Level FlightAware Transoceanic
Wed 08:29:00 AM 52.0365 -20.9502 93° East 527 606 37,000  Level FlightAware Transoceanic
Wed 08:30:00 AM 52.0281 -20.7125 93° East 527 606 37,000  Level FlightAware Transoceanic
Wed 08:31:00 AM 52.0192 -20.4749 94° East 527 606 37,000  Level FlightAware Transoceanic
Wed 08:32:00 AM 52.0098 -20.2374 94° East 527 606 37,000 -26 Level FlightAware Transoceanic
Wed 08:33:00 AM 52.0006 -20.0147 94° East  Level FlightAware Approximate
Wed 08:34:00 AM 51.9910 -19.7921 94° East  Level FlightAware Approximate
Wed 08:35:00 AM 51.9712 -19.8120 104° East  Level FlightAware Approximate
Wed 08:36:00 AM 51.9377 -19.5958 104° East  Level FlightAware Approximate
Wed 08:37:00 AM 51.9037 -19.3799 104° East  Level FlightAware Approximate
Wed 08:38:00 AM 51.8694 -19.1644 104° East  Level FlightAware Approximate
Wed 08:39:00 AM 51.8347 -18.9491 105° East  Level FlightAware Approximate
Wed 08:40:00 AM 51.7996 -18.7342 105° East  Level FlightAware Approximate
Wed 08:41:00 AM 51.7641 -18.5197 105° East  Level FlightAware Approximate
Wed 08:42:00 AM 51.7282 -18.3055 105° East  Level FlightAware Approximate
Wed 08:43:00 AM 51.6919 -18.0916 105° East  Level FlightAware Approximate
Wed 08:44:00 AM 51.6552 -17.8780 105° East  Level FlightAware Approximate
Wed 08:45:00 AM 51.6182 -17.6649 106° East  Level FlightAware Approximate
Wed 08:46:00 AM 51.5808 -17.4520 105° East  Level FlightAware Approximate
Wed 08:47:00 AM 51.5443 -17.2389 105° East  Level FlightAware Approximate
Wed 08:48:00 AM 51.5074 -17.0261 105° East  Level FlightAware Approximate
Wed 08:49:00 AM 51.4701 -16.8137 106° East  Level FlightAware Approximate
Wed 08:50:00 AM 51.4324 -16.6017 106° East  Level FlightAware Approximate
Wed 08:51:00 AM 51.3944 -16.3900 106° East  Level FlightAware Approximate
Wed 08:52:00 AM 51.3559 -16.1787 106° East  Level FlightAware Approximate
Wed 08:53:00 AM 51.3171 -15.9677 106° East  Level FlightAware Approximate
Wed 08:54:00 AM 51.2779 -15.7571 106° East  Level FlightAware Approximate
Wed 08:55:00 AM 51.2383 -15.5468 107° East  Level FlightAware Approximate
Wed 08:56:00 AM 51.1984 -15.3369 107° East  Level FlightAware Approximate
Wed 08:57:00 AM 51.1581 -15.1274 107° East  Level FlightAware Approximate
Wed 08:58:00 AM 51.1180 -14.9179 107° East  Level FlightAware Approximate
Wed 08:59:00 AM 51.0786 -14.7083 107° East  Level FlightAware Approximate
Wed 09:00:00 AM 51.0388 -14.4990 107° East  Level FlightAware Approximate
Wed 09:01:00 AM 50.9978 -14.2905 108° East  Level FlightAware Approximate
Wed 09:02:00 AM 50.9554 -14.0830 108° East  Level FlightAware Approximate
Wed 09:03:00 AM 50.9126 -13.8758 108° East  Level FlightAware Approximate
Wed 09:04:00 AM 50.8695 -13.6690 108° East  Level FlightAware Approximate
Wed 09:05:00 AM 50.8260 -13.4625 108° East  Level FlightAware Approximate
Wed 09:06:00 AM 50.7821 -13.2565 109° East  Level FlightAware Approximate
Wed 09:07:00 AM 50.7378 -13.0508 109° East  Level FlightAware Approximate
Wed 09:08:00 AM 50.6932 -12.8456 109° East  Level FlightAware Approximate
Wed 09:09:00 AM 50.6482 -12.6407 109° East  Level FlightAware Approximate
Wed 09:10:00 AM 50.6029 -12.4362 109° East  Level FlightAware Approximate
Wed 09:11:00 AM 50.5572 -12.2322 109° East  Level FlightAware Approximate
Wed 09:12:00 AM 50.5104 -12.0289 110° East  Level FlightAware Approximate
Wed 09:13:00 AM 50.4631 -11.8262 110° East  Level FlightAware Approximate
Wed 09:14:00 AM 50.4154 -11.6238 110° East  Level FlightAware Approximate
Wed 09:15:00 AM 50.3674 -11.4219 110° East  Level FlightAware Approximate
Wed 09:16:00 AM 50.3190 -11.2204 111° Southeast  Level FlightAware Approximate
Wed 09:17:00 AM 50.2703 -11.0193 111° Southeast  Level FlightAware Approximate
Wed 09:18:00 AM 50.2212 -10.8186 111° Southeast  Level FlightAware Approximate
Wed 09:19:00 AM 50.1718 -10.6183 111° Southeast  Level FlightAware Approximate
Wed 09:20:00 AM 50.1220 -10.4184 111° Southeast  Level FlightAware Approximate
Wed 09:21:00 AM 50.0719 -10.2190 111° Southeast  Level FlightAware Approximate
Wed 09:22:00 AM 50.0218 -10.0197 111° Southeast  Level FlightAware Approximate
Wed 09:23:00 AM 49.9723 -9.8203 111° Southeast  Level FlightAware Approximate
Wed 09:24:00 AM 49.9225 -9.6213 111° Southeast  Level FlightAware Approximate
Wed 09:25:00 AM 49.8723 -9.4227 111° Southeast  Level FlightAware Approximate
Wed 09:26:00 AM 49.8218 -9.2245 111° Southeast  Level FlightAware Approximate
Wed 09:27:00 AM 49.7710 -9.0268 112° Southeast  Level FlightAware Approximate
Wed 09:28:00 AM 49.7199 -8.8294 112° Southeast  Level FlightAware Approximate
Wed 09:28:18 AM 49.9206 -8.9971 112° Southeast 460 529 35,500  Level FlightAware UK
Wed 09:28:36 AM 49.8991 -8.9459 123° Southeast 458 527 35,500  Level FlightAware UK
Wed 09:28:54 AM 49.8776 -8.8947 123° Southeast 458 527 35,500  Level FlightAware UK
Wed 09:29:12 AM 49.8560 -8.8435 123° Southeast 458 527 35,500  Level FlightAware UK
Wed 09:29:30 AM 49.8345 -8.7924 123° Southeast 456 525 35,500  Level FlightAware UK
Wed 09:29:48 AM 49.8129 -8.7413 123° Southeast 456 525 35,500  Level FlightAware UK
Wed 09:30:06 AM 49.7913 -8.6903 123° Southeast 456 525 35,500  Level FlightAware UK
Wed 09:30:24 AM 49.7696 -8.6393 123° Southeast 458 527 35,500  Level FlightAware UK
Wed 09:30:42 AM 49.7480 -8.5882 123° Southeast 460 529 35,500  Level FlightAware UK
Wed 09:31:00 AM 49.7263 -8.5371 123° Southeast 458 527 35,500  Level FlightAware UK
Wed 09:31:18 AM 49.7046 -8.4860 123° Southeast 458 527 35,500  Level FlightAware UK
Wed 09:31:36 AM 49.6830 -8.4349 123° Southeast 462 532 35,500  Level FlightAware UK
Wed 09:31:54 AM 49.6614 -8.3837 123° Southeast 462 532 35,500  Level FlightAware UK
Wed 09:32:12 AM 49.6399 -8.3326 123° Southeast 462 532 35,500  Level FlightAware UK
Wed 09:32:30 AM 49.6182 -8.2815 123° Southeast 460 529 35,500  Level FlightAware UK
Wed 09:32:48 AM 49.5965 -8.2307 123° Southeast 458 527 35,500  Level FlightAware UK
Wed 09:33:06 AM 49.5748 -8.1799 123° Southeast 458 527 35,500  Level FlightAware UK
Wed 09:33:24 AM 49.5531 -8.1292 123° Southeast 458 527 35,500  Level FlightAware UK
Wed 09:33:42 AM 49.5313 -8.0785 123° Southeast 456 525 35,500  Level FlightAware UK
Wed 09:34:00 AM 49.5098 -8.0268 123° Southeast 458 527 35,500 -167 Level FlightAware UK
Wed 09:34:18 AM 49.5008 -7.9656 103° East 458 527 35,400 -167 Descending FlightAware UK
Wed 09:34:36 AM 49.4960 -7.9016 97° East 458 527 35,400  Level FlightAware UK
Wed 09:34:54 AM 49.4955 -7.8370 91° East 456 525 35,400 167 Level FlightAware UK
Wed 09:35:12 AM 49.4923 -7.7722 94° East 458 527 35,500 167 Climbing FlightAware UK
Wed 09:35:30 AM 49.4909 -7.7073 92° East 460 529 35,500  Level FlightAware UK
Wed 09:35:48 AM 49.4894 -7.6425 92° East 460 529 35,500  Level FlightAware UK
Wed 09:36:06 AM 49.4877 -7.5778 92° East 460 529 35,500  Level FlightAware UK
Wed 09:36:24 AM 49.4857 -7.5134 93° East 462 532 35,500  Level FlightAware UK
Wed 09:36:42 AM 49.4836 -7.4491 93° East 462 532 35,500  Level FlightAware UK
Wed 09:37:00 AM 49.4816 -7.3848 93° East 458 527 35,500  Level FlightAware UK
Wed 09:37:18 AM 49.4795 -7.3205 93° East 460 529 35,500  Level FlightAware UK
Wed 09:37:36 AM 49.4775 -7.2564 93° East 458 527 35,500  Level FlightAware UK
Wed 09:37:54 AM 49.4754 -7.1923 93° East 458 527 35,500  Level FlightAware UK
Wed 09:38:12 AM 49.4734 -7.1281 93° East 458 527 35,500  Level FlightAware UK
Wed 09:38:30 AM 49.4715 -7.0641 93° East 458 527 35,500  Level FlightAware UK
Wed 09:38:48 AM 49.4695 -7.0000 93° East 458 527 35,500  Level FlightAware UK
Wed 09:39:06 AM 49.4675 -6.9353 93° East 458 527 35,500  Level FlightAware UK
Wed 09:39:24 AM 49.4656 -6.8713 93° East 458 527 35,500  Level FlightAware UK
Wed 09:39:42 AM 49.4636 -6.8073 93° East 458 527 35,500  Level FlightAware UK
Wed 09:40:00 AM 49.4615 -6.7437 93° East 458 527 35,500  Level FlightAware UK
Wed 09:40:18 AM 49.4594 -6.6800 93° East 456 525 35,500  Level FlightAware UK
Wed 09:40:36 AM 49.4573 -6.6163 93° East 456 525 35,500  Level FlightAware UK
Wed 09:40:54 AM 49.4550 -6.5526 93° East 456 525 35,500  Level FlightAware UK
Wed 09:41:12 AM 49.4529 -6.4887 93° East 456 525 35,500  Level FlightAware UK
Wed 09:41:30 AM 49.4507 -6.4249 93° East 454 522 35,500  Level FlightAware UK
Wed 09:41:48 AM 49.4486 -6.3611 93° East 454 522 35,500  Level FlightAware UK
Wed 09:42:06 AM 49.4464 -6.2972 93° East 456 525 35,500  Level FlightAware UK
Wed 09:42:24 AM 49.4442 -6.2334 93° East 454 522 35,500  Level FlightAware UK
Wed 09:42:42 AM 49.4418 -6.1696 93° East 456 525 35,500  Level FlightAware UK
Wed 09:43:00 AM 49.4394 -6.1058 93° East 456 525 35,500  Level FlightAware UK
Wed 09:43:18 AM 49.4371 -6.0420 93° East 454 522 35,500  Level FlightAware UK
Wed 09:43:36 AM 49.4346 -5.9781 93° East 452 520 35,500  Level FlightAware UK
Wed 09:43:54 AM 49.4321 -5.9142 94° East 454 522 35,500  Level FlightAware UK
Wed 09:44:12 AM 49.4297 -5.8504 93° East 452 520 35,500  Level FlightAware UK
Wed 09:44:30 AM 49.4274 -5.7856 93° East 454 522 35,500  Level FlightAware UK
Wed 09:44:48 AM 49.4251 -5.7214 93° East 454 522 35,500  Level FlightAware UK
Wed 09:45:06 AM 49.4227 -5.6573 93° East 456 525 35,500  Level FlightAware UK
Wed 09:45:24 AM 49.4203 -5.5930 93° East 456 525 35,500  Level FlightAware UK
Wed 09:45:42 AM 49.4178 -5.5286 93° East 458 527 35,500  Level FlightAware UK
Wed 09:46:00 AM 49.4153 -5.4643 93° East 458 527 35,500  Level FlightAware UK
Wed 09:46:18 AM 49.4127 -5.4000 94° East 458 527 35,500  Level FlightAware UK
Wed 09:46:36 AM 49.4100 -5.3357 94° East 460 529 35,500  Level FlightAware UK
Wed 09:46:54 AM 49.4072 -5.2715 94° East 458 527 35,500  Level FlightAware UK
Wed 09:47:18 AM 49.4027 -5.1860 95° East 458 527 35,500  Level FlightAware UK
Wed 09:47:36 AM 49.4000 -5.1218 94° East 458 527 35,500  Level FlightAware UK
Wed 09:48:00 AM 49.4032 -5.0358 87° East 458 527 35,500  Level FlightAware UK
Wed 09:48:18 AM 49.4040 -4.9711 89° East 458 527 35,500  Level FlightAware UK
Wed 09:48:36 AM 49.4047 -4.9064 89° East 458 527 35,500  Level FlightAware UK
Wed 09:48:54 AM 49.4053 -4.8419 89° East 458 527 35,500  Level FlightAware UK
Wed 09:49:18 AM 49.4064 -4.7549 89° East 460 529 35,500  Level FlightAware UK
Wed 09:49:36 AM 49.4069 -4.6902 89° East 460 529 35,500  Level FlightAware UK
Wed 09:49:54 AM 49.4071 -4.6256 90° East 460 529 35,500  Level FlightAware UK
Wed 09:50:12 AM 49.4075 -4.5609 89° East 460 529 35,500  Level FlightAware UK
Wed 09:50:30 AM 49.4081 -4.4961 89° East 462 532 35,500  Level FlightAware UK
Wed 09:50:48 AM 49.4085 -4.4313 89° East 460 529 35,500  Level FlightAware UK
Wed 09:51:06 AM 49.4090 -4.3666 89° East 460 529 35,500  Level FlightAware UK
Wed 09:51:24 AM 49.4093 -4.3018 90° East 460 529 35,500  Level FlightAware UK
Wed 09:51:42 AM 49.4099 -4.2371 89° East 460 529 35,500  Level FlightAware UK
Wed 09:52:00 AM 49.4103 -4.1723 89° East 460 529 35,500  Level FlightAware UK
Wed 09:52:18 AM 49.4107 -4.1076 90° East 460 529 35,500  Level FlightAware UK
Wed 09:53:06 AM 49.4112 -3.9353 90° East 462 532 35,500  Level FlightAware UK
Wed 09:53:24 AM 49.4113 -3.8707 90° East 462 532 35,500  Level FlightAware UK
Wed 09:53:55 AM 49.4116 -3.7626 90° East 462 532 35,500  Level FlightAware UK
Wed 09:54:13 AM 49.4117 -3.6982 90° East 462 532 35,500  Level FlightAware UK
Wed 09:54:31 AM 49.4118 -3.6339 90° East 462 532 35,500  Level FlightAware UK
Wed 09:54:49 AM 49.4117 -3.5696 90° East 462 532 35,500  Level FlightAware UK
Wed 09:55:07 AM 49.4115 -3.5055 90° East 460 529 35,500  Level FlightAware UK
Wed 09:55:49 AM 49.4114 -3.3553 90° East 460 529 35,500  Level FlightAware UK
Wed 09:56:07 AM 49.4113 -3.2912 90° East 462 532 35,500  Level FlightAware UK
Wed 09:56:37 AM 49.4110 -3.1845 90° East 460 529 35,500  Level FlightAware UK
Wed 09:57:01 AM 49.4105 -3.0992 91° East 460 529 35,500  Level FlightAware UK
Wed 09:57:19 AM 49.4101 -3.0345 91° East 460 529 35,500  Level FlightAware UK
Wed 09:57:37 AM 49.4096 -2.9705 91° East 464 534 35,500  Level FlightAware UK
Wed 09:58:07 AM 49.4090 -2.8642 91° East 462 532 35,500  Level FlightAware UK
Wed 09:58:31 AM 49.4081 -2.7785 91° East 462 532 35,500  Level FlightAware UK
Wed 09:58:49 AM 49.4077 -2.7150 91° East 464 534 35,500  Level FlightAware UK
Wed 09:59:07 AM 49.4072 -2.6516 91° East 462 532 35,500  Level FlightAware UK
Wed 09:59:31 AM 49.4064 -2.5671 91° East 460 529 35,500  Level FlightAware UK
Wed 09:59:55 AM 49.4056 -2.4820 91° East 460 529 35,500  Level FlightAware UK
Wed 10:00:37 AM 49.4044 -2.3344 91° East 460 529 35,500  Level FlightAware UK
Wed 10:00:55 AM 49.4040 -2.2711 91° East 458 527 35,500  Level FlightAware UK
Wed 10:01:14 AM 49.4035 -2.2071 91° East 460 529 35,500  Level FlightAware UK
Wed 10:01:56 AM 49.4015 -2.0593 91° East 460 529 35,500  Level FlightAware UK
Wed 10:02:14 AM 49.4005 -1.9951 91° East 460 529 35,500  Level FlightAware UK
Wed 10:02:44 AM 49.3992 -1.8893 91° East 460 529 35,500  Level FlightAware UK
Wed 10:03:20 AM 49.3973 -1.7634 91° East 458 527 35,500  Level FlightAware UK
Wed 10:03:44 AM 49.3963 -1.6792 91° East 458 527 35,500  Level FlightAware UK
Wed 10:04:02 AM 49.3955 -1.6166 91° East 456 525 35,500  Level FlightAware UK
Wed 10:04:20 AM 49.3942 -1.5538 92° East 456 525 35,500  Level FlightAware UK
Wed 10:04:50 AM 49.3923 -1.4492 92° East 458 527 35,500  Level FlightAware UK
Wed 10:05:14 AM 49.3906 -1.3645 92° East 458 527 35,500  Level FlightAware UK
Wed 10:05:32 AM 49.3894 -1.3009 92° East 458 527 35,500  Level FlightAware UK
Wed 10:06:02 AM 49.3874 -1.1965 92° East 458 527 35,500  Level FlightAware UK
Wed 10:06:20 AM 49.3862 -1.1328 92° East 458 527 35,500 -167 Level FlightAware UK
Wed 10:06:38 AM 49.3849 -1.0698 92° East 458 527 35,400 -667 Descending FlightAware UK
Wed 10:06:56 AM 49.3835 -1.0070 92° East 458 527 35,100 -1,125 Descending FlightAware UK
Wed 10:07:26 AM 49.3810 -0.9025 92° East 460 529 34,500 -1,254 Descending FlightAware UK
Wed 10:08:03 AM 49.3780 -0.7763 92° East 460 529 33,700 -2,219 Descending FlightAware UK
Wed 10:08:39 AM 49.3750 -0.6506 92° East 466 536 31,800 -3,333 Descending FlightAware UK
Wed 10:08:57 AM 49.3736 -0.5867 92° East 468 539 30,700 -3,000 Descending FlightAware UK
Wed 10:09:27 AM 49.3705 -0.4805 92° East 464 534 29,400 -2,625 Descending FlightAware UK
Wed 10:09:45 AM 49.3688 -0.4170 92° East 458 527 28,600 -2,667 Descending FlightAware UK
Wed 10:10:21 AM 49.3657 -0.2927 92° East 452 520 27,000 -1,833 Descending FlightAware UK
Wed 10:10:57 AM 49.3575 -0.1725 96° East 448 516 26,400 -455 Descending FlightAware UK
Wed 10:11:27 AM 49.3476 -0.0734 99° East 442 509 26,500 125 Climbing FlightAware UK
Wed 10:11:45 AM 49.3417 -0.0145 99° East 440 506 26,500  Level FlightAware UK
Wed 10:12:27 AM 49.3316 0.1241 96° East 446 513 26,500 -182 Level FlightAware UK
Wed 10:12:51 AM 49.3286 0.2053 93° East 446 513 26,300 -1,333 Descending FlightAware UK
Wed 10:13:21 AM 49.3265 0.3050 92° East 440 506 25,300 -2,250 Descending FlightAware UK
Wed 10:13:39 AM 49.3257 0.3642 91° East 436 502 24,500 -3,000 Descending FlightAware UK
Wed 10:14:03 AM 49.3250 0.4428 91° East 432 497 23,200 -2,687 Descending FlightAware UK
Wed 10:14:46 AM 49.3230 0.5805 91° East 424 488 21,500 -2,262 Descending FlightAware UK
Wed 10:15:04 AM 49.3219 0.6364 92° East 420 483 20,900 -1,833 Descending FlightAware UK
Wed 10:15:22 AM 49.3210 0.6922 91° East 410 472 20,400 -1,714 Descending FlightAware UK
Wed 10:15:46 AM 49.3196 0.7646 92° East 398 458 19,700 -1,714 Descending FlightAware UK
Wed 10:16:04 AM 49.3186 0.8181 92° East 394 453 19,200 -1,667 Descending FlightAware UK
Wed 10:16:22 AM 49.3175 0.8712 92° East 390 449 18,700 -1,571 Descending FlightAware UK
Wed 10:16:46 AM 49.3160 0.9404 92° East 390 449 18,100 -1,571 Descending FlightAware UK
Wed 10:17:04 AM 49.3149 0.9934 92° East 384 442 17,600 -1,667 Descending FlightAware UK
Wed 10:17:22 AM 49.3135 1.0449 92° East 384 442 17,100 -179 Descending FlightAware UK
Wed 10:18:11 AM 49.4507 1.2924 92° East 387 445 17,400 -1,563 Climbing FlightAware ADS-B
Wed 10:18:58 AM 49.3059 1.3117 92° East 372 428 14,600 -3,046 Descending FlightAware UK
Wed 10:19:16 AM 49.3043 1.3607 93° East 370 426 14,100 -1,571 Descending FlightAware UK
Wed 10:19:40 AM 49.3021 1.4252 93° East 364 419 13,500 -1,375 Descending FlightAware UK
Wed 10:20:04 AM 49.3005 1.4882 92° East 360 414 13,000 -1,429 Descending FlightAware UK
Wed 10:20:22 AM 49.2990 1.5356 93° East 358 412 12,500 -1,500 Descending FlightAware UK
Wed 10:20:52 AM 49.2961 1.6143 93° East 356 410 11,800 -1,400 Descending FlightAware UK
Wed 10:21:22 AM 49.2941 1.6924 92° East 350 403 11,100 -1,625 Descending FlightAware UK
Wed 10:21:40 AM 49.2931 1.7389 92° East 348 400 10,500 -1,167 Descending FlightAware UK
Wed 10:21:58 AM 49.2917 1.7827 93° East 338 389 10,400 -667 Descending FlightAware UK
Wed 10:22:16 AM 49.2903 1.8269 93° East 334 384 10,100 -1,143 Descending FlightAware UK
Wed 10:22:40 AM 49.2874 1.8854 94° East 332 382 9,600 -1,000 Descending FlightAware UK
Wed 10:22:58 AM 49.2846 1.9278 96° East 332 382 9,400 2,154 Descending FlightAware UK
Wed 10:23:19 AM 49.4232 2.0729 96° East 327 376 11,000 162 Climbing FlightAware ADS-B
Wed 10:23:35 AM 49.2801 2.0127 96° East 330 380 9,500  Descending FlightAware UK
Wed 10:24:01 AM 49.4175 2.1710 96° East 329 379 11,000  Climbing FlightAware ADS-B
Wed 10:24:17 AM 49.2760 2.1144 96° East 332 382 9,500  Descending FlightAware UK
Wed 10:24:32 AM 49.4136 2.2417 96° East 318 366 11,000 1,875 Climbing FlightAware ADS-B
Wed 10:25:05 AM 49.4098 2.3126 95° East 284 327 11,000  Level FlightAware ADS-B
Wed 10:25:36 AM 49.4065 2.3701 95° East 261 300 11,000  Level FlightAware ADS-B
Wed 10:26:18 AM 49.4016 2.4479 96° East 259 298 11,000  Level FlightAware ADS-B
Wed 10:26:49 AM 49.3978 2.5043 96° East 258 297 11,000  Level FlightAware ADS-B
Wed 10:27:01 AM 49.3964 2.5258 96° East 258 297 11,000 -558 Level FlightAware ADS-B
Wed 10:27:32 AM 49.3924 2.5818 96° East 254 292 10,600 -818 Descending FlightAware ADS-B
Wed 10:28:07 AM 49.3852 2.6435 100° East 247 284 10,100 -982 Descending FlightAware ADS-B
Wed 10:28:27 AM 49.3804 2.6765 103° East 245 282 9,700 -1,297 Descending FlightAware ADS-B
Wed 10:28:44 AM 49.3761 2.7062 103° East 244 281 9,300 -1,167 Descending FlightAware ADS-B
Wed 10:29:03 AM 49.3717 2.7369 102° East 241 277 9,000 -1,029 Descending FlightAware ADS-B
Wed 10:29:19 AM 49.3679 2.7631 103° East 239 275 8,700 -1,125 Descending FlightAware ADS-B
Wed 10:29:35 AM 49.3639 2.7897 103° East 238 274 8,400 -1,161 Descending FlightAware ADS-B
Wed 10:29:50 AM 49.3602 2.8152 103° East 238 274 8,100 -750 Descending FlightAware ADS-B
Wed 10:30:07 AM 49.3562 2.8428 103° East 236 272 8,000 -44 Descending FlightAware ADS-B
Wed 10:32:00 AM 49.1302 2.6496 209° Southwest  Level Estimated
Wed 10:32:06 AM 49.3114 3.0279 209° Southwest 246 283 8,000  Level FlightAware ADS-B
Wed 10:32:23 AM 49.2994 3.0505 129° Southeast 245 282 8,000 -545 Level FlightAware ADS-B
Wed 10:32:39 AM 49.2886 3.0710 129° Southeast 242 278 7,700 -1,161 Descending FlightAware ADS-B
Wed 10:32:54 AM 49.2782 3.0906 129° Southeast 242 278 7,400 -1,200 Descending FlightAware ADS-B
Wed 10:33:09 AM 49.2672 3.1115 129° Southeast 243 280 7,100 -1,135 Descending FlightAware ADS-B
Wed 10:33:31 AM 49.2513 3.1395 131° Southeast 240 276 6,700 -868 Descending FlightAware ADS-B
Wed 10:36:00 AM 49.0721 2.6954 238° Southwest  Level Estimated
Wed 10:37:00 AM 49.0128 2.5500 238° Southwest  Level Estimated
Wed 10:38:00 AM 49.0128 2.5500 180° South  Level Estimated
Wed 10:38:20 AM 49.1427 2.7833 180° South 206 237 2,600  Level FlightAware ADS-B
Wed 10:38:31 AM 49.1413 2.7670 263° West 209 241 2,500 -889 Descending FlightAware ADS-B
Wed 10:38:47 AM 49.1396 2.7445 263° West 207 238 2,200 -1,043 Descending FlightAware ADS-B
Wed 10:38:54 AM 49.1385 2.7342 261° West 206 237 2,100 -923 Descending FlightAware ADS-B
Wed 10:39:00 AM 49.1372 2.7262 256° West 205 236 2,000 -1,385 Descending FlightAware ADS-B
Wed 10:39:07 AM 49.1353 2.7165 253° West 203 234 1,800 -1,286 Descending FlightAware ADS-B
Wed 10:39:14 AM 49.1334 2.7074 252° West 197 227 1,700 -1,200 Descending FlightAware ADS-B
Wed 10:39:17 AM 49.1326 2.7029 255° West 195 224 1,600 -857 Descending FlightAware ADS-B
Wed 10:39:21 AM 49.1317 2.6981 254° West 191 220 1,600 -667 Level FlightAware ADS-B
Wed 10:39:26 AM 49.1309 2.6913 260° West 184 212 1,500 -900 Descending FlightAware ADS-B
Wed 10:39:41 AM 49.1291 2.6727 262° West 169 194 1,300 -783 Descending FlightAware ADS-B
Wed 10:39:49 AM 49.1283 2.6637 262° West 166 191 1,200 -900 Descending FlightAware ADS-B
Wed 10:40:01 AM 49.1272 2.6494 263° West 167 192 1,000 -857 Descending FlightAware ADS-B
Wed 10:40:10 AM 49.1264 2.6387 263° West 165 190 900 -353 Descending FlightAware ADS-B
Wed 10:40:18 AM 49.1257 2.6304 263° West 166 191 900 -600 Level FlightAware ADS-B
Wed 10:40:30 AM 49.1245 2.6157 263° West 160 184 700 -889 Descending FlightAware ADS-B
Wed 10:40:45 AM 49.1229 2.5998 261° West 154 177 500 -783 Descending FlightAware ADS-B
Wed 10:40:53 AM 49.1221 2.5909 262° West 152 175 400 -400 Descending FlightAware ADS-B
Wed 10:41:00 AM 49.1214 2.5840 261° West 150 173 400 -333 Level FlightAware ADS-B
Wed 10:41:11 AM 49.1204 2.5722 263° West 151 174 300 -545 Descending FlightAware ADS-B
Wed 10:44:00 AM 47.7252 -1.7080 64° Northeast  Level Estimated
Wed 10:45:00 AM 47.7854 -1.5243 64° Northeast  Level Estimated
Wed 10:46:00 AM 47.8453 -1.3401 64° Northeast  Level Estimated
Wed 10:47:00 AM 47.9050 -1.1556 64° Northeast  Level Estimated
Wed 10:48:00 AM 47.9643 -0.9706 64° Northeast  Level Estimated
Wed 10:49:00 AM 48.0233 -0.7851 64° Northeast  Level Estimated
Wed 10:50:00 AM 48.0820 -0.5993 65° Northeast  Level Estimated
Wed 10:51:00 AM 48.1405 -0.4130 65° Northeast  Level Estimated
Wed 10:52:00 AM 48.1986 -0.2263 65° Northeast  Level Estimated
Wed 10:53:00 AM 48.2564 -0.0392 65° Northeast  Level Estimated
Wed 10:54:00 AM 48.3139 0.1483 65° Northeast  Level Estimated
Wed 10:55:00 AM 48.3711 0.3363 65° Northeast  Level Estimated
Wed 10:56:00 AM 48.4280 0.5246 65° Northeast  Level Estimated
Wed 10:57:00 AM 48.4846 0.7134 66° East  Level Estimated
Wed 10:58:00 AM 48.5409 0.9027 66° East  Level Estimated
Wed 10:59:00 AM 48.5969 1.0923 66° East  Level Estimated
Wed 11:00:00 AM 48.6526 1.2824 66° East  Level Estimated
Wed 11:01:00 AM 48.7079 1.4728 66° East  Level Estimated
Wed 11:02:00 AM 48.7629 1.6637 66° East  Level Estimated
Wed 11:03:00 AM 48.8177 1.8551 66° East  Level Estimated
Wed 11:04:00 AM 48.8721 2.0468 67° East  Level Estimated
Wed 11:05:00 AM 48.9261 2.2389 67° East  Level Estimated

Login

Don't have an account? Register now (free) for customized features, flight alerts, and more!